Rainbow Star; — VREU4 — position and weather

sailwx.info

Track history (hours):
 
Tides and Currents Weather Stations Pressure Air Temp Water Temp Dewpoint Dewpoint Depression Visibility Wind Speed Wind Dir Waves Ship Positions

Rainbow Star;

Last reported at 2017-Sep-26 10:06 UTC. Time now 2017-Oct-19 16:27 UTC.
Position N 34°48' E 139°41'.
Warning: this ship's position is 23 days out of date.

Length 182 m; draft 12.1 m.

Type: Tanker. MMSI: 477185200.

Date/timePositionNaut miles runAvg speedWind from/ knotsBaromVisibWave heightAir tempDewpointWater temp
2017-Sep-26 10:06N 34°48' E 139°41'112.5
2017-Sep-26 09:59N 34°49' E 139°41'613.3
2017-Sep-26 09:30N 34°55' E 139°42'612.8
2017-Sep-26 09:00N 35°02' E 139°43'611.8
2017-Sep-26 08:30N 35°08' E 139°44'611.0
2017-Sep-26 08:00N 35°13' E 139°46'5 9.7
2017-Sep-26 07:30N 35°17' E 139°44'611.2
2017-Sep-26 07:01N 35°23' E 139°42'510.5
2017-Sep-26 06:31N 35°27' E 139°46'611.0
2017-Sep-26 06:01N 35°30' E 139°52'510.9
2017-Sep-26 05:31N 35°33' E 139°57'1 1.8
2017-Sep-26 04:58N 35°33' E 139°58'0 0.1
2017-Sep-26 04:04N 35°33' E 139°58'0 0.1
2017-Sep-26 03:43N 35°33' E 139°58'0 0.0
2017-Sep-26 03:28N 35°33' E 139°58'0 0.0
2017-Sep-26 02:49N 35°33' E 139°58'0 0.0
2017-Sep-26 02:28N 35°33' E 139°58'0 0.0
2017-Sep-26 01:55N 35°33' E 139°58'0 0.1
2017-Sep-26 01:25N 35°33' E 139°58'0 0.2
2017-Sep-26 00:58N 35°33' E 139°58'0 0.1
2017-Sep-26 00:28N 35°33' E 139°58'0 0.0
2017-Sep-26 00:00N 35°33' E 139°58'1 1.1
2017-Sep-25 23:30N 35°33' E 139°59'3 6.4
2017-Sep-25 23:00N 35°31' E 140°02'0 0.0
2017-Sep-24 06:14N 35°31' E 140°02'0 0.2
2017-Sep-24 05:58N 35°31' E 140°02'2 5.1
2017-Sep-24 05:30N 35°31' E 139°59'4 7.6
2017-Sep-24 05:00N 35°30' E 139°55'713.1
2017-Sep-24 04:31N 35°26' E 139°49'713.4
2017-Sep-24 04:00N 35°20' E 139°45'612.0
2017-Sep-24 03:31N 35°15' E 139°47'611.4
2017-Sep-24 03:01N 35°09' E 139°47'3 5.1
2017-Sep-24 02:31N 35°06' E 139°47'510.3
2017-Sep-24 02:01N 35°02' E 139°44'4 8.0
2017-Sep-24 01:31N 34°58' E 139°43'612.5
2017-Sep-24 01:00N 34°52' E 139°44'612.5
2017-Sep-24 00:30N 34°46' E 139°46'  
Track history (hours):
 
Tides and Currents Weather Stations Pressure Air Temp Water Temp Dewpoint Dewpoint Depression Visibility Wind Speed Wind Dir Waves Ship Positions

Rainbow Star;

Last reported at 2017-Sep-26 10:06 UTC. Time now 2017-Oct-19 16:27 UTC.
Position N 34°48' E 139°41'.
Warning: this ship's position is 23 days out of date.

Length 182 m; draft 12.1 m.

Type: Tanker. MMSI: 477185200.

Date/timePositionNaut miles runAvg speedWind from/ knotsBaromVisibWave heightAir tempDewpointWater temp
2017-Sep-26 10:06N 34°48' E 139°41'112.5
2017-Sep-26 09:59N 34°49' E 139°41'613.3
2017-Sep-26 09:30N 34°55' E 139°42'612.8
2017-Sep-26 09:00N 35°02' E 139°43'611.8
2017-Sep-26 08:30N 35°08' E 139°44'611.0
2017-Sep-26 08:00N 35°13' E 139°46'5 9.7
2017-Sep-26 07:30N 35°17' E 139°44'611.2
2017-Sep-26 07:01N 35°23' E 139°42'510.5
2017-Sep-26 06:31N 35°27' E 139°46'611.0
2017-Sep-26 06:01N 35°30' E 139°52'510.9
2017-Sep-26 05:31N 35°33' E 139°57'1 1.8
2017-Sep-26 04:58N 35°33' E 139°58'0 0.1
2017-Sep-26 04:04N 35°33' E 139°58'0 0.1
2017-Sep-26 03:43N 35°33' E 139°58'0 0.0
2017-Sep-26 03:28N 35°33' E 139°58'0 0.0
2017-Sep-26 02:49N 35°33' E 139°58'0 0.0
2017-Sep-26 02:28N 35°33' E 139°58'0 0.0
2017-Sep-26 01:55N 35°33' E 139°58'0 0.1
2017-Sep-26 01:25N 35°33' E 139°58'0 0.2
2017-Sep-26 00:58N 35°33' E 139°58'0 0.1
2017-Sep-26 00:28N 35°33' E 139°58'0 0.0
2017-Sep-26 00:00N 35°33' E 139°58'1 1.1
2017-Sep-25 23:30N 35°33' E 139°59'3 6.4
2017-Sep-25 23:00N 35°31' E 140°02'0 0.0
2017-Sep-24 06:14N 35°31' E 140°02'0 0.2
2017-Sep-24 05:58N 35°31' E 140°02'2 5.1
2017-Sep-24 05:30N 35°31' E 139°59'4 7.6
2017-Sep-24 05:00N 35°30' E 139°55'713.1
2017-Sep-24 04:31N 35°26' E 139°49'713.4
2017-Sep-24 04:00N 35°20' E 139°45'612.0
2017-Sep-24 03:31N 35°15' E 139°47'611.4
2017-Sep-24 03:01N 35°09' E 139°47'3 5.1
2017-Sep-24 02:31N 35°06' E 139°47'510.3
2017-Sep-24 02:01N 35°02' E 139°44'4 8.0
2017-Sep-24 01:31N 34°58' E 139°43'612.5
2017-Sep-24 01:00N 34°52' E 139°44'612.5
2017-Sep-24 00:30N 34°46' E 139°46'  

Dump ship's entire track history